Fort Worth Alliance Airport
KAFW : now visible

Airfield :











YOU CAN JOIN US ON...

 
LOGIN :

Register | Disclaimer

   EN    FR    IT 

 









Legend :    VFR   Marginal VFR   IFR   Intensive IFR   Very Intensive IFR
Visi :
Ceiling :
>= 8 km
>= 3000ft
5 to 8 km
1000 to 3000 ft
1500m to 5 km
500 to 1000 ft
800 to 1500m
200 to 500 ft
< 800m
< 200 ft
Symbols :   Thunderstorms  Fog  Heavy snow  Heavy precipitations  Wind > 20 kt






- Airport Elevation : 722 ft


KAFW - Fort Worth Alliance

CURRENT METAR :
  • 192253Z 15013KT 10SM FEW300 25/05 A2987 RMK AO2 SLP111 T02500050

EXPIRED METARs :
  • 192153Z 18012KT 10SM FEW180 BKN300 27/04 A2988 RMK AO2 SLP113 T02670039
  • 192053Z 16010KT 10SM FEW180 BKN300 26/04 A2989 RMK AO2 SLP117 T02610044 56020
  • 191953Z 15009KT 10SM FEW130 BKN300 26/04 A2990 RMK AO2 SLP119 T02610039

TAF KAFW
Valid from the 19 at 21:00 until the 20 at 18:00 UTC


192030Z 1921/2018 15007KT P6SM FEW250
FM201100 17010KT P6SM OVC025
FM201300 17011KT P6SM OVC019



MET'MAP, your aeronautical weather chart ! - Copyright ORBIFLY December 2007 - Disclaimer

ORBIFLY MET'MAP TEAM :

Programming & Development : Alexandra Zaïnal
Concept & Development : Baudouin d'Aumeries
Co-Development & Prog : Marc-Olivier Méhu
Technical & hardware support : Manuel Goepfert

Contact : metmap@orbifly.com




SOURCES & CREDITS :

   NOAA       Earth
Advisory